New Breman, New York
Current Conditions -  °F | °C
As of 2:58 AM on Thursday 27 Nov 2014 (Local Time) from KGTB Reporting Station
Overcast Overcast  
Wind Chill: 20°   Ceiling: 1900
Heat Index: 26°   Visibility: 10mi
Dew Point: 24°   Wind: 6mph
Humidity: 90%   Direction: 350°N
Pressure: 29.98"   Gusts: NA
Location:  43.7565°N, 75.5938°W
Report Text: KGTB 270758Z AUTO 35005KT 10SM OVC019 M03/M05 A2998 RMK AO2 SLP162 T10321046
Loading
Personal Weather Stations






























Interactive Weather Map New forecast layout! Learn more

10-Day Weather Forecast

Advertisements
Track Severe Weather on mobile